createdAt,value
2022-12-13T00:00:02.472Z,-0.18
2022-12-13T00:04:54.107Z,-0.17
2022-12-13T00:09:46.043Z,-0.14
2022-12-13T00:14:39.224Z,-0.16
2022-12-13T00:19:30.926Z,-0.17
2022-12-13T00:29:14.696Z,-0.18
2022-12-13T00:34:06.400Z,-0.21
2022-12-13T00:39:01.780Z,-0.18
2022-12-13T00:43:53.790Z,-0.19
2022-12-13T00:48:50.638Z,-0.20
2022-12-13T00:53:42.670Z,-0.21
2022-12-13T00:58:35.641Z,-0.20
2022-12-13T01:03:27.524Z,-0.24
2022-12-13T01:08:19.388Z,-0.24
2022-12-13T01:13:11.421Z,-0.20
2022-12-13T01:18:03.144Z,-0.22
2022-12-13T01:22:54.910Z,-0.18
2022-12-13T01:27:46.603Z,-0.16
2022-12-13T01:32:38.545Z,-0.15
2022-12-13T01:37:30.596Z,-0.13
2022-12-13T01:42:22.285Z,-0.08
2022-12-13T01:47:19.190Z,-0.06
2022-12-13T01:52:14.454Z,-0.02
2022-12-13T01:57:10.796Z,-0.04
2022-12-13T02:02:03.030Z,-0.02
2022-12-13T02:06:57.378Z,-0.03
2022-12-13T02:11:49.860Z,-0.01
2022-12-13T02:16:57.210Z,-0.04
2022-12-13T02:21:51.946Z,-0.04
2022-12-13T02:26:56.074Z,-0.02
2022-12-13T02:32:00.515Z,-0.06
2022-12-13T02:37:18.662Z,-0.07
2022-12-13T02:42:25.687Z,-0.10
2022-12-13T02:47:25.898Z,-0.08
2022-12-13T02:52:22.495Z,-0.08
2022-12-13T02:57:31.254Z,-0.06
2022-12-13T03:02:43.252Z,-0.06
2022-12-13T03:07:55.765Z,-0.04
2022-12-13T03:13:38.148Z,0.01
2022-12-13T03:18:33.082Z,0.02
2022-12-13T03:23:25.955Z,0.01
2022-12-13T03:28:18.030Z,-0.02
2022-12-13T03:33:09.965Z,0.00
2022-12-13T03:38:02.161Z,-0.02
2022-12-13T03:42:53.859Z,-0.03
2022-12-13T03:47:45.573Z,-0.05
2022-12-13T03:52:37.268Z,-0.01
2022-12-13T03:57:29.431Z,-0.01
2022-12-13T04:02:30.739Z,0.03
2022-12-13T04:07:23.496Z,0.01
2022-12-13T04:12:33.704Z,0.02
2022-12-13T04:17:25.391Z,0.03
2022-12-13T04:22:23.284Z,0.02
2022-12-13T04:27:16.663Z,-0.01
2022-12-13T04:32:26.503Z,-0.01
2022-12-13T04:37:19.042Z,-0.02
2022-12-13T04:42:11.803Z,-0.05
2022-12-13T04:47:03.723Z,-0.02
2022-12-13T04:52:00.509Z,-0.02
2022-12-13T04:56:53.139Z,-0.01
2022-12-13T05:01:45.071Z,-0.01
2022-12-13T05:06:36.895Z,-0.01
2022-12-13T05:11:35.921Z,-0.05
2022-12-13T05:16:27.964Z,-0.05
2022-12-13T05:21:19.781Z,-0.05
2022-12-13T05:26:11.486Z,-0.09
2022-12-13T05:31:23.638Z,-0.09
2022-12-13T05:36:15.860Z,-0.13
2022-12-13T05:41:13.711Z,-0.11
2022-12-13T05:46:05.895Z,-0.16
2022-12-13T05:51:09.909Z,-0.16
2022-12-13T05:56:03.599Z,-0.20
2022-12-13T06:00:55.529Z,-0.22
2022-12-13T06:05:47.423Z,-0.24
2022-12-13T06:10:39.279Z,-0.28
2022-12-13T06:15:34.558Z,-0.31
2022-12-13T06:20:27.139Z,-0.26
2022-12-13T06:25:30.694Z,-0.29
2022-12-13T06:30:23.818Z,-0.27
2022-12-13T06:35:27.909Z,-0.26
2022-12-13T06:40:23.207Z,-0.25
2022-12-13T06:45:15.385Z,-0.22
2022-12-13T06:50:07.770Z,-0.20
2022-12-13T06:55:00.071Z,-0.22
2022-12-13T06:59:52.166Z,-0.17
2022-12-13T07:04:44.395Z,-0.11
2022-12-13T07:09:36.816Z,-0.12
2022-12-13T07:14:28.636Z,-0.12
2022-12-13T07:19:24.031Z,-0.09
2022-12-13T07:24:16.416Z,-0.11
2022-12-13T07:29:08.190Z,-0.12
2022-12-13T07:34:00.395Z,-0.11
2022-12-13T07:38:57.157Z,-0.12
2022-12-13T07:43:48.936Z,-0.14
2022-12-13T07:48:47.181Z,-0.17
2022-12-13T07:53:39.957Z,-0.16
2022-12-13T07:58:33.538Z,-0.15
2022-12-13T08:03:26.593Z,-0.19
2022-12-13T08:08:21.183Z,-0.23
2022-12-13T08:13:12.889Z,-0.27
2022-12-13T08:18:05.297Z,-0.29
2022-12-13T08:23:01.754Z,-0.28
2022-12-13T08:27:54.169Z,-0.25
2022-12-13T08:32:53.408Z,-0.28
2022-12-13T08:37:45.128Z,-0.27
2022-12-13T08:42:37.239Z,-0.27
2022-12-13T08:47:29.011Z,-0.28
2022-12-13T08:52:22.867Z,-0.28
2022-12-13T08:57:14.921Z,-0.28
2022-12-13T09:02:06.742Z,-0.31
2022-12-13T09:06:58.534Z,-0.28
2022-12-13T09:11:53.556Z,-0.29
2022-12-13T09:16:51.857Z,-0.26
2022-12-13T09:21:43.727Z,-0.25
2022-12-13T09:26:38.463Z,-0.25
2022-12-13T09:31:30.496Z,-0.24
2022-12-13T09:36:22.687Z,-0.21
2022-12-13T09:41:34.467Z,-0.19
2022-12-13T09:46:45.158Z,-0.17
2022-12-13T09:51:41.470Z,-0.24
2022-12-13T09:56:35.601Z,-0.24
2022-12-13T10:01:27.723Z,-0.22
2022-12-13T10:06:24.357Z,-0.20
2022-12-13T10:11:18.004Z,-0.14
2022-12-13T10:16:23.590Z,-0.12
2022-12-13T10:21:22.709Z,-0.15
2022-12-13T10:26:24.178Z,-0.13
2022-12-13T10:31:20.706Z,-0.08
2022-12-13T10:36:30.012Z,-0.04
2022-12-13T10:41:37.055Z,0.00
2022-12-13T10:46:31.264Z,-0.02
2022-12-13T10:51:38.743Z,0.01
2022-12-13T10:56:37.626Z,0.02
2022-12-13T11:01:29.499Z,0.03
2022-12-13T11:06:21.385Z,0.03
2022-12-13T11:11:18.690Z,0.05
2022-12-13T11:16:34.205Z,0.10
2022-12-13T11:21:31.059Z,0.14
2022-12-13T11:26:25.461Z,0.22
2022-12-13T11:31:41.641Z,0.24
2022-12-13T11:36:36.427Z,0.19
2022-12-13T11:41:34.656Z,0.18
2022-12-13T11:46:40.324Z,0.14
2022-12-13T11:51:43.264Z,0.16
2022-12-13T11:56:40.317Z,0.13
2022-12-13T12:01:44.119Z,0.13
2022-12-13T12:06:45.482Z,0.12
2022-12-13T12:11:37.063Z,0.17
2022-12-13T12:16:40.726Z,0.25
2022-12-13T12:22:12.174Z,0.26
2022-12-13T12:26:49.997Z,0.31
2022-12-13T12:32:14.050Z,0.38
2022-12-13T12:37:42.977Z,0.42
2022-12-13T12:43:14.454Z,0.43
2022-12-13T12:53:48.228Z,0.51
2022-12-13T12:58:51.437Z,0.53
2022-12-13T13:03:44.987Z,0.52
2022-12-13T13:08:59.410Z,0.54
2022-12-13T13:14:35.199Z,0.58
2022-12-13T13:19:32.761Z,0.64
2022-12-13T13:24:32.593Z,0.69
2022-12-13T13:29:27.324Z,0.73
2022-12-13T13:34:29.329Z,0.72
2022-12-13T13:39:56.285Z,0.69
2022-12-13T13:44:51.478Z,0.71
2022-12-13T13:50:27.725Z,0.71
2022-12-13T13:55:22.589Z,0.69
2022-12-13T14:00:19.160Z,0.66
2022-12-13T14:05:30.134Z,0.65
2022-12-13T14:10:52.392Z,0.67
2022-12-13T14:16:20.188Z,0.64
2022-12-13T14:21:15.284Z,0.63
2022-12-13T14:26:34.236Z,0.61
2022-12-13T14:31:39.589Z,0.56
2022-12-13T14:36:35.375Z,0.50
2022-12-13T14:41:27.145Z,0.49
2022-12-13T14:46:19.384Z,0.47
2022-12-13T14:51:38.557Z,0.46
2022-12-13T14:56:30.626Z,0.40
2022-12-13T15:01:25.490Z,0.36
2022-12-13T15:06:22.207Z,0.27
2022-12-13T15:11:14.651Z,0.24
2022-12-13T15:16:11.420Z,0.18
2022-12-13T15:21:03.323Z,0.12
2022-12-13T15:26:28.101Z,0.10
2022-12-13T15:31:22.373Z,0.02
2022-12-13T15:36:19.966Z,0.00
2022-12-13T15:41:18.477Z,-0.01
2022-12-13T15:46:10.522Z,-0.10
2022-12-13T15:51:29.435Z,-0.13
2022-12-13T15:57:04.548Z,-0.16
2022-12-13T16:01:58.703Z,-0.28
2022-12-13T16:06:55.758Z,-0.26
2022-12-13T16:11:53.599Z,-0.27
2022-12-13T16:16:45.425Z,-0.33
2022-12-13T16:21:37.035Z,-0.41
2022-12-13T16:26:29.366Z,-0.42
2022-12-13T16:31:25.819Z,-0.49
2022-12-13T16:36:18.160Z,-0.51
2022-12-13T16:41:10.395Z,-0.55
2022-12-13T16:47:10.309Z,-0.59
2022-12-13T16:51:16.642Z,-0.64
2022-12-13T16:56:11.478Z,-0.65
2022-12-13T17:01:15.046Z,-0.67
2022-12-13T17:06:09.963Z,-0.70
2022-12-13T17:11:01.724Z,-0.77
2022-12-13T17:15:59.747Z,-0.78
2022-12-13T17:20:58.148Z,-0.83
2022-12-13T17:25:58.722Z,-0.87
2022-12-13T17:30:54.449Z,-0.89
2022-12-13T17:35:47.345Z,-0.90
2022-12-13T17:40:39.212Z,-0.94
2022-12-13T17:45:30.931Z,-0.97
2022-12-13T17:50:22.630Z,-1.00
2022-12-13T17:55:18.334Z,-1.02
2022-12-13T18:00:11.027Z,-1.06
2022-12-13T18:05:02.823Z,-1.11
2022-12-13T18:09:54.527Z,-1.12
2022-12-13T18:14:46.220Z,-1.19
2022-12-13T18:19:37.909Z,-1.20
2022-12-13T18:24:29.605Z,-1.23
2022-12-13T18:29:21.792Z,-1.29
2022-12-13T18:34:13.582Z,-1.30
2022-12-13T18:39:05.613Z,-1.33
2022-12-13T18:44:00.422Z,-1.38
2022-12-13T18:48:52.180Z,-1.48
2022-12-13T18:53:43.992Z,-1.51
2022-12-13T18:58:36.587Z,-1.52
2022-12-13T19:03:28.716Z,-1.58
2022-12-13T19:08:26.372Z,-1.67
2022-12-13T19:13:18.321Z,-1.72
2022-12-13T19:18:10.864Z,-1.75
2022-12-13T19:23:02.647Z,-1.78
2022-12-13T19:27:56.922Z,-1.79
2022-12-13T19:32:48.744Z,-1.86
2022-12-13T19:37:40.600Z,-1.88
2022-12-13T19:42:32.404Z,-1.89
2022-12-13T19:47:24.189Z,-1.95
2022-12-13T19:52:15.828Z,-2.01
2022-12-13T19:57:08.051Z,-2.02
2022-12-13T20:02:00.184Z,-2.06
2022-12-13T20:06:51.975Z,-2.06
2022-12-13T20:11:43.666Z,-2.07
2022-12-13T20:16:35.389Z,-2.13
2022-12-13T20:21:28.773Z,-2.17
2022-12-13T20:26:23.271Z,-2.17
2022-12-13T20:31:18.606Z,-2.18
2022-12-13T20:36:24.747Z,-2.18
2022-12-13T20:41:17.445Z,-2.21
2022-12-13T20:46:11.809Z,-2.22
2022-12-13T20:51:06.006Z,-2.24
2022-12-13T20:55:58.095Z,-2.24
2022-12-13T21:00:49.951Z,-2.24
2022-12-13T21:05:44.613Z,-2.24
2022-12-13T21:10:36.338Z,-2.28
2022-12-13T21:15:28.148Z,-2.34
2022-12-13T21:20:20.120Z,-2.36
2022-12-13T21:25:11.834Z,-2.44
2022-12-13T21:30:04.002Z,-2.47
2022-12-13T21:34:55.692Z,-2.59
2022-12-13T21:39:47.421Z,-2.64
2022-12-13T21:44:39.099Z,-2.66
2022-12-13T21:49:30.976Z,-2.68
2022-12-13T21:54:22.932Z,-2.70
2022-12-13T21:59:16.399Z,-2.75
2022-12-13T22:04:08.114Z,-2.73
2022-12-13T22:08:59.923Z,-2.73
2022-12-13T22:13:51.524Z,-2.65
2022-12-13T22:18:43.259Z,-2.62
2022-12-13T22:23:34.956Z,-2.57
2022-12-13T22:28:29.701Z,-2.55
2022-12-13T22:33:21.597Z,-2.55
2022-12-13T22:38:13.475Z,-2.55
2022-12-13T22:43:05.202Z,-2.62
2022-12-13T22:47:56.916Z,-2.67
2022-12-13T22:52:48.592Z,-2.73
2022-12-13T22:57:40.460Z,-2.81
2022-12-13T23:02:32.184Z,-2.86
2022-12-13T23:07:24.051Z,-2.89
2022-12-13T23:12:34.866Z,-2.92
2022-12-13T23:17:26.716Z,-3.00
2022-12-13T23:22:22.594Z,-3.06
2022-12-13T23:27:14.520Z,-3.11
2022-12-13T23:32:06.391Z,-3.20
2022-12-13T23:36:58.371Z,-3.25
2022-12-13T23:41:50.287Z,-3.30
2022-12-13T23:46:42.193Z,-3.35
2022-12-13T23:51:40.999Z,-3.33
2022-12-13T23:56:32.681Z,-3.42
